sensor_id;sensor_type;location;lat;lon;timestamp;P1;durP1;ratioP1;P2;durP2;ratioP2
9108;SDS011;4590;51.462;6.692;2022-11-15T00:00:21;8.50;;;5.30;;
9108;SDS011;4590;51.462;6.692;2022-11-15T00:02:46;8.77;;;5.77;;
9108;SDS011;4590;51.462;6.692;2022-11-15T00:05:11;8.10;;;5.77;;
9108;SDS011;4590;51.462;6.692;2022-11-15T00:07:36;9.87;;;6.17;;
9108;SDS011;4590;51.462;6.692;2022-11-15T00:10:02;10.10;;;5.73;;
9108;SDS011;4590;51.462;6.692;2022-11-15T00:12:28;9.40;;;5.82;;
9108;SDS011;4590;51.462;6.692;2022-11-15T00:14:53;9.67;;;5.67;;
9108;SDS011;4590;51.462;6.692;2022-11-15T00:17:19;9.77;;;6.67;;
9108;SDS011;4590;51.462;6.692;2022-11-15T00:19:44;14.10;;;6.40;;
9108;SDS011;4590;51.462;6.692;2022-11-15T00:22:09;9.50;;;6.27;;
9108;SDS011;4590;51.462;6.692;2022-11-15T00:24:35;8.40;;;6.23;;
9108;SDS011;4590;51.462;6.692;2022-11-15T00:27:00;8.43;;;5.90;;
9108;SDS011;4590;51.462;6.692;2022-11-15T00:29:25;9.00;;;5.90;;
9108;SDS011;4590;51.462;6.692;2022-11-15T00:31:50;10.20;;;6.10;;
9108;SDS011;4590;51.462;6.692;2022-11-15T00:34:16;14.77;;;7.23;;
9108;SDS011;4590;51.462;6.692;2022-11-15T00:36:41;9.47;;;6.87;;
9108;SDS011;4590;51.462;6.692;2022-11-15T00:39:06;13.03;;;6.00;;
9108;SDS011;4590;51.462;6.692;2022-11-15T00:41:31;9.03;;;5.03;;
9108;SDS011;4590;51.462;6.692;2022-11-15T00:43:57;10.53;;;6.17;;
9108;SDS011;4590;51.462;6.692;2022-11-15T00:46:22;10.33;;;5.80;;
9108;SDS011;4590;51.462;6.692;2022-11-15T00:48:47;9.47;;;5.97;;
9108;SDS011;4590;51.462;6.692;2022-11-15T00:51:13;11.00;;;5.30;;
9108;SDS011;4590;51.462;6.692;2022-11-15T00:53:38;8.63;;;5.80;;
9108;SDS011;4590;51.462;6.692;2022-11-15T00:56:03;8.37;;;5.77;;
9108;SDS011;4590;51.462;6.692;2022-11-15T00:58:29;9.53;;;5.17;;
9108;SDS011;4590;51.462;6.692;2022-11-15T01:00:54;8.77;;;5.63;;
9108;SDS011;4590;51.462;6.692;2022-11-15T01:03:19;9.70;;;5.83;;
9108;SDS011;4590;51.462;6.692;2022-11-15T01:05:45;10.10;;;5.93;;
9108;SDS011;4590;51.462;6.692;2022-11-15T01:08:14;9.43;;;5.93;;
9108;SDS011;4590;51.462;6.692;2022-11-15T01:10:41;7.70;;;5.00;;
9108;SDS011;4590;51.462;6.692;2022-11-15T01:13:06;8.95;;;6.18;;
9108;SDS011;4590;51.462;6.692;2022-11-15T01:15:31;7.47;;;4.90;;
9108;SDS011;4590;51.462;6.692;2022-11-15T01:17:57;7.50;;;5.20;;
9108;SDS011;4590;51.462;6.692;2022-11-15T01:20:22;8.17;;;5.43;;
9108;SDS011;4590;51.462;6.692;2022-11-15T01:22:47;6.23;;;5.07;;
9108;SDS011;4590;51.462;6.692;2022-11-15T01:25:13;8.47;;;5.47;;
9108;SDS011;4590;51.462;6.692;2022-11-15T01:27:38;9.07;;;5.70;;
9108;SDS011;4590;51.462;6.692;2022-11-15T01:30:03;8.50;;;5.77;;
9108;SDS011;4590;51.462;6.692;2022-11-15T01:32:29;9.27;;;5.93;;
9108;SDS011;4590;51.462;6.692;2022-11-15T01:34:54;10.57;;;6.10;;
9108;SDS011;4590;51.462;6.692;2022-11-15T01:37:20;8.57;;;5.90;;
9108;SDS011;4590;51.462;6.692;2022-11-15T01:39:45;7.47;;;5.57;;
9108;SDS011;4590;51.462;6.692;2022-11-15T01:42:13;9.90;;;6.40;;
9108;SDS011;4590;51.462;6.692;2022-11-15T01:47:15;8.13;;;5.47;;
9108;SDS011;4590;51.462;6.692;2022-11-15T01:49:59;10.23;;;5.28;;
9108;SDS011;4590;51.462;6.692;2022-11-15T01:52:28;12.27;;;6.13;;
9108;SDS011;4590;51.462;6.692;2022-11-15T01:55:06;10.07;;;5.78;;
9108;SDS011;4590;51.462;6.692;2022-11-15T01:57:36;9.60;;;5.82;;
9108;SDS011;4590;51.462;6.692;2022-11-15T02:00:03;9.27;;;5.53;;
9108;SDS011;4590;51.462;6.692;2022-11-15T02:02:30;11.52;;;5.95;;
9108;SDS011;4590;51.462;6.692;2022-11-15T02:04:55;8.90;;;5.97;;
9108;SDS011;4590;51.462;6.692;2022-11-15T02:07:21;7.90;;;5.70;;
9108;SDS011;4590;51.462;6.692;2022-11-15T02:09:47;8.75;;;5.57;;
9108;SDS011;4590;51.462;6.692;2022-11-15T02:12:14;9.13;;;5.80;;
9108;SDS011;4590;51.462;6.692;2022-11-15T02:14:44;9.07;;;5.30;;
9108;SDS011;4590;51.462;6.692;2022-11-15T02:20:30;8.00;;;5.10;;
9108;SDS011;4590;51.462;6.692;2022-11-15T02:31:17;7.07;;;5.22;;
9108;SDS011;4590;51.462;6.692;2022-11-15T02:34:02;8.45;;;5.22;;
9108;SDS011;4590;51.462;6.692;2022-11-15T02:36:54;11.05;;;5.05;;
9108;SDS011;4590;51.462;6.692;2022-11-15T02:42:01;7.45;;;5.03;;
9108;SDS011;4590;51.462;6.692;2022-11-15T02:44:36;7.53;;;4.75;;
9108;SDS011;4590;51.462;6.692;2022-11-15T02:47:07;8.40;;;4.90;;
9108;SDS011;4590;51.462;6.692;2022-11-15T02:49:46;6.25;;;4.78;;
9108;SDS011;4590;51.462;6.692;2022-11-15T02:52:14;7.40;;;4.68;;
9108;SDS011;4590;51.462;6.692;2022-11-15T02:54:54;6.95;;;4.45;;
9108;SDS011;4590;51.462;6.692;2022-11-15T02:57:24;8.02;;;5.55;;
9108;SDS011;4590;51.462;6.692;2022-11-15T03:00:04;8.57;;;5.00;;
9108;SDS011;4590;51.462;6.692;2022-11-15T03:02:42;7.82;;;4.85;;
9108;SDS011;4590;51.462;6.692;2022-11-15T03:08:17;10.73;;;5.65;;
9108;SDS011;4590;51.462;6.692;2022-11-15T03:14:06;9.65;;;4.93;;
9108;SDS011;4590;51.462;6.692;2022-11-15T03:17:02;7.88;;;5.05;;
9108;SDS011;4590;51.462;6.692;2022-11-15T03:19:34;7.47;;;5.10;;
9108;SDS011;4590;51.462;6.692;2022-11-15T03:22:08;8.73;;;5.10;;
9108;SDS011;4590;51.462;6.692;2022-11-15T03:24:37;7.45;;;4.65;;
9108;SDS011;4590;51.462;6.692;2022-11-15T03:27:04;6.72;;;4.68;;
9108;SDS011;4590;51.462;6.692;2022-11-15T03:29:33;7.13;;;5.00;;
9108;SDS011;4590;51.462;6.692;2022-11-15T03:32:09;7.65;;;4.75;;
9108;SDS011;4590;51.462;6.692;2022-11-15T03:37:25;9.57;;;5.40;;
9108;SDS011;4590;51.462;6.692;2022-11-15T03:39:58;9.43;;;5.85;;
9108;SDS011;4590;51.462;6.692;2022-11-15T03:42:26;6.73;;;4.30;;
9108;SDS011;4590;51.462;6.692;2022-11-15T03:45:02;6.93;;;5.13;;
9108;SDS011;4590;51.462;6.692;2022-11-15T03:47:48;9.05;;;5.50;;
9108;SDS011;4590;51.462;6.692;2022-11-15T03:50:19;8.77;;;5.32;;
9108;SDS011;4590;51.462;6.692;2022-11-15T03:52:46;7.20;;;5.13;;
9108;SDS011;4590;51.462;6.692;2022-11-15T03:55:14;7.95;;;4.90;;
9108;SDS011;4590;51.462;6.692;2022-11-15T03:57:41;7.63;;;5.63;;
9108;SDS011;4590;51.462;6.692;2022-11-15T04:00:07;8.53;;;5.77;;
9108;SDS011;4590;51.462;6.692;2022-11-15T04:02:33;8.55;;;5.40;;
9108;SDS011;4590;51.462;6.692;2022-11-15T04:04:58;9.93;;;5.03;;
9108;SDS011;4590;51.462;6.692;2022-11-15T04:07:23;7.50;;;5.17;;
9108;SDS011;4590;51.462;6.692;2022-11-15T04:09:49;7.30;;;4.50;;
9108;SDS011;4590;51.462;6.692;2022-11-15T04:12:35;7.78;;;4.85;;
9108;SDS011;4590;51.462;6.692;2022-11-15T04:15:04;7.18;;;4.28;;
9108;SDS011;4590;51.462;6.692;2022-11-15T04:17:32;7.70;;;5.07;;
9108;SDS011;4590;51.462;6.692;2022-11-15T04:19:57;7.30;;;4.67;;
9108;SDS011;4590;51.462;6.692;2022-11-15T04:22:41;5.53;;;3.80;;
9108;SDS011;4590;51.462;6.692;2022-11-15T04:25:25;5.57;;;3.72;;
9108;SDS011;4590;51.462;6.692;2022-11-15T04:27:50;6.00;;;4.63;;
9108;SDS011;4590;51.462;6.692;2022-11-15T04:30:15;6.17;;;4.67;;
9108;SDS011;4590;51.462;6.692;2022-11-15T04:32:40;7.77;;;3.97;;
9108;SDS011;4590;51.462;6.692;2022-11-15T04:35:06;8.33;;;4.73;;
9108;SDS011;4590;51.462;6.692;2022-11-15T04:37:31;6.22;;;4.20;;
9108;SDS011;4590;51.462;6.692;2022-11-15T04:39:57;8.63;;;4.23;;
9108;SDS011;4590;51.462;6.692;2022-11-15T04:42:22;6.77;;;4.10;;
9108;SDS011;4590;51.462;6.692;2022-11-15T04:44:47;7.07;;;4.37;;
9108;SDS011;4590;51.462;6.692;2022-11-15T04:47:12;6.13;;;4.60;;
9108;SDS011;4590;51.462;6.692;2022-11-15T04:49:38;6.00;;;4.22;;
9108;SDS011;4590;51.462;6.692;2022-11-15T04:52:03;6.47;;;3.70;;
9108;SDS011;4590;51.462;6.692;2022-11-15T04:54:29;6.17;;;4.20;;
9108;SDS011;4590;51.462;6.692;2022-11-15T04:56:54;6.63;;;3.90;;
9108;SDS011;4590;51.462;6.692;2022-11-15T04:59:19;5.47;;;3.97;;
9108;SDS011;4590;51.462;6.692;2022-11-15T05:01:44;6.37;;;4.17;;
9108;SDS011;4590;51.462;6.692;2022-11-15T05:04:10;6.93;;;4.53;;
9108;SDS011;4590;51.462;6.692;2022-11-15T05:06:45;6.00;;;4.00;;
9108;SDS011;4590;51.462;6.692;2022-11-15T05:09:11;6.55;;;4.00;;
9108;SDS011;4590;51.462;6.692;2022-11-15T05:14:03;6.10;;;3.63;;
9108;SDS011;4590;51.462;6.692;2022-11-15T05:16:28;5.07;;;3.27;;
9108;SDS011;4590;51.462;6.692;2022-11-15T05:18:54;5.10;;;3.33;;
9108;SDS011;4590;51.462;6.692;2022-11-15T05:21:19;5.85;;;4.18;;
9108;SDS011;4590;51.462;6.692;2022-11-15T05:23:45;7.13;;;4.00;;
9108;SDS011;4590;51.462;6.692;2022-11-15T05:26:11;5.23;;;3.90;;
9108;SDS011;4590;51.462;6.692;2022-11-15T05:28:36;6.25;;;4.15;;
9108;SDS011;4590;51.462;6.692;2022-11-15T05:31:07;6.38;;;3.90;;
9108;SDS011;4590;51.462;6.692;2022-11-15T05:33:34;6.32;;;3.78;;
9108;SDS011;4590;51.462;6.692;2022-11-15T05:36:12;5.13;;;3.70;;
9108;SDS011;4590;51.462;6.692;2022-11-15T05:38:59;5.97;;;3.47;;
9108;SDS011;4590;51.462;6.692;2022-11-15T05:41:46;4.73;;;3.40;;
9108;SDS011;4590;51.462;6.692;2022-11-15T05:44:14;6.30;;;3.90;;
9108;SDS011;4590;51.462;6.692;2022-11-15T05:46:41;6.38;;;3.80;;
9108;SDS011;4590;51.462;6.692;2022-11-15T05:49:07;7.32;;;4.00;;
9108;SDS011;4590;51.462;6.692;2022-11-15T05:51:36;5.30;;;3.38;;
9108;SDS011;4590;51.462;6.692;2022-11-15T05:54:02;9.02;;;3.97;;
9108;SDS011;4590;51.462;6.692;2022-11-15T05:56:28;6.57;;;4.10;;
9108;SDS011;4590;51.462;6.692;2022-11-15T05:58:53;4.85;;;3.22;;
9108;SDS011;4590;51.462;6.692;2022-11-15T06:01:21;7.07;;;4.20;;
9108;SDS011;4590;51.462;6.692;2022-11-15T06:03:46;8.23;;;5.00;;
9108;SDS011;4590;51.462;6.692;2022-11-15T06:06:12;6.03;;;4.17;;
9108;SDS011;4590;51.462;6.692;2022-11-15T06:08:37;6.90;;;4.43;;
9108;SDS011;4590;51.462;6.692;2022-11-15T06:11:03;5.13;;;4.13;;
9108;SDS011;4590;51.462;6.692;2022-11-15T06:13:30;6.25;;;4.13;;
9108;SDS011;4590;51.462;6.692;2022-11-15T06:15:55;7.97;;;4.57;;
9108;SDS011;4590;51.462;6.692;2022-11-15T06:18:21;6.50;;;4.30;;
9108;SDS011;4590;51.462;6.692;2022-11-15T06:20:46;5.30;;;4.03;;
9108;SDS011;4590;51.462;6.692;2022-11-15T06:23:11;5.83;;;4.10;;
9108;SDS011;4590;51.462;6.692;2022-11-15T06:25:38;6.05;;;4.53;;
9108;SDS011;4590;51.462;6.692;2022-11-15T06:28:03;8.90;;;4.37;;
9108;SDS011;4590;51.462;6.692;2022-11-15T06:30:29;5.27;;;3.73;;
9108;SDS011;4590;51.462;6.692;2022-11-15T06:33:01;6.77;;;4.50;;
9108;SDS011;4590;51.462;6.692;2022-11-15T06:35:28;6.75;;;4.07;;
9108;SDS011;4590;51.462;6.692;2022-11-15T06:37:53;7.65;;;4.30;;
9108;SDS011;4590;51.462;6.692;2022-11-15T06:40:19;5.63;;;4.23;;
9108;SDS011;4590;51.462;6.692;2022-11-15T06:42:44;6.50;;;4.27;;
9108;SDS011;4590;51.462;6.692;2022-11-15T06:45:09;6.17;;;3.77;;
9108;SDS011;4590;51.462;6.692;2022-11-15T06:47:35;5.63;;;3.93;;
9108;SDS011;4590;51.462;6.692;2022-11-15T06:50:00;5.10;;;3.57;;
9108;SDS011;4590;51.462;6.692;2022-11-15T06:52:25;8.13;;;4.50;;
9108;SDS011;4590;51.462;6.692;2022-11-15T06:54:50;4.97;;;4.03;;
9108;SDS011;4590;51.462;6.692;2022-11-15T06:57:16;5.47;;;3.60;;
9108;SDS011;4590;51.462;6.692;2022-11-15T06:59:41;5.23;;;3.70;;
9108;SDS011;4590;51.462;6.692;2022-11-15T07:02:11;5.10;;;3.53;;
9108;SDS011;4590;51.462;6.692;2022-11-15T07:04:38;5.85;;;3.38;;
9108;SDS011;4590;51.462;6.692;2022-11-15T07:07:03;7.10;;;4.47;;
9108;SDS011;4590;51.462;6.692;2022-11-15T07:09:28;4.53;;;3.53;;
9108;SDS011;4590;51.462;6.692;2022-11-15T07:11:53;5.37;;;3.60;;
9108;SDS011;4590;51.462;6.692;2022-11-15T07:14:19;5.07;;;3.10;;
9108;SDS011;4590;51.462;6.692;2022-11-15T07:16:44;5.43;;;2.97;;
9108;SDS011;4590;51.462;6.692;2022-11-15T07:19:09;5.17;;;3.80;;
9108;SDS011;4590;51.462;6.692;2022-11-15T07:21:36;6.13;;;3.60;;
9108;SDS011;4590;51.462;6.692;2022-11-15T07:24:01;5.63;;;3.58;;
9108;SDS011;4590;51.462;6.692;2022-11-15T07:26:27;5.37;;;3.07;;
9108;SDS011;4590;51.462;6.692;2022-11-15T07:28:52;5.07;;;2.90;;
9108;SDS011;4590;51.462;6.692;2022-11-15T07:31:17;4.00;;;3.07;;
9108;SDS011;4590;51.462;6.692;2022-11-15T07:33:43;4.43;;;3.10;;
9108;SDS011;4590;51.462;6.692;2022-11-15T07:36:08;4.47;;;3.00;;
9108;SDS011;4590;51.462;6.692;2022-11-15T07:38:34;4.13;;;2.95;;
9108;SDS011;4590;51.462;6.692;2022-11-15T07:41:03;4.78;;;2.30;;
9108;SDS011;4590;51.462;6.692;2022-11-15T07:43:29;4.35;;;2.15;;
9108;SDS011;4590;51.462;6.692;2022-11-15T07:45:55;6.25;;;2.65;;
9108;SDS011;4590;51.462;6.692;2022-11-15T07:48:21;3.45;;;2.00;;
9108;SDS011;4590;51.462;6.692;2022-11-15T07:50:47;3.97;;;2.22;;
9108;SDS011;4590;51.462;6.692;2022-11-15T07:53:12;3.80;;;1.97;;
9108;SDS011;4590;51.462;6.692;2022-11-15T07:55:39;3.23;;;2.00;;
9108;SDS011;4590;51.462;6.692;2022-11-15T07:58:06;4.65;;;2.30;;
9108;SDS011;4590;51.462;6.692;2022-11-15T08:00:33;3.08;;;1.60;;
9108;SDS011;4590;51.462;6.692;2022-11-15T08:03:09;4.43;;;1.98;;
9108;SDS011;4590;51.462;6.692;2022-11-15T08:08:02;5.22;;;1.98;;
9108;SDS011;4590;51.462;6.692;2022-11-15T08:10:28;4.38;;;1.80;;
9108;SDS011;4590;51.462;6.692;2022-11-15T08:12:58;4.13;;;1.70;;
9108;SDS011;4590;51.462;6.692;2022-11-15T08:15:28;3.67;;;1.38;;
9108;SDS011;4590;51.462;6.692;2022-11-15T08:17:55;2.17;;;1.13;;
9108;SDS011;4590;51.462;6.692;2022-11-15T08:20:21;2.53;;;0.98;;
9108;SDS011;4590;51.462;6.692;2022-11-15T08:22:47;1.55;;;0.68;;
9108;SDS011;4590;51.462;6.692;2022-11-15T08:25:12;1.30;;;0.70;;
9108;SDS011;4590;51.462;6.692;2022-11-15T08:27:37;1.20;;;0.63;;
9108;SDS011;4590;51.462;6.692;2022-11-15T08:30:03;1.97;;;0.50;;
9108;SDS011;4590;51.462;6.692;2022-11-15T08:32:30;0.68;;;0.35;;
9108;SDS011;4590;51.462;6.692;2022-11-15T08:34:56;1.42;;;0.60;;
9108;SDS011;4590;51.462;6.692;2022-11-15T08:37:21;1.17;;;0.50;;
9108;SDS011;4590;51.462;6.692;2022-11-15T08:39:46;1.10;;;0.50;;
9108;SDS011;4590;51.462;6.692;2022-11-15T08:42:12;1.40;;;0.70;;
9108;SDS011;4590;51.462;6.692;2022-11-15T08:44:38;2.63;;;0.60;;
9108;SDS011;4590;51.462;6.692;2022-11-15T08:47:03;1.30;;;0.70;;
9108;SDS011;4590;51.462;6.692;2022-11-15T08:49:28;2.00;;;1.10;;
9108;SDS011;4590;51.462;6.692;2022-11-15T08:51:53;2.47;;;0.97;;
9108;SDS011;4590;51.462;6.692;2022-11-15T08:54:19;3.23;;;1.10;;
9108;SDS011;4590;51.462;6.692;2022-11-15T08:56:44;2.87;;;1.20;;
9108;SDS011;4590;51.462;6.692;2022-11-15T08:59:09;2.47;;;1.10;;
9108;SDS011;4590;51.462;6.692;2022-11-15T09:01:35;3.27;;;1.53;;
9108;SDS011;4590;51.462;6.692;2022-11-15T09:04:00;3.97;;;1.43;;
9108;SDS011;4590;51.462;6.692;2022-11-15T09:06:25;4.87;;;1.10;;
9108;SDS011;4590;51.462;6.692;2022-11-15T09:08:51;2.83;;;1.33;;
9108;SDS011;4590;51.462;6.692;2022-11-15T09:11:16;5.47;;;2.77;;
9108;SDS011;4590;51.462;6.692;2022-11-15T09:13:45;4.72;;;1.88;;
9108;SDS011;4590;51.462;6.692;2022-11-15T09:16:10;3.40;;;1.60;;
9108;SDS011;4590;51.462;6.692;2022-11-15T09:18:37;2.78;;;1.70;;
9108;SDS011;4590;51.462;6.692;2022-11-15T09:21:03;3.17;;;1.13;;
9108;SDS011;4590;51.462;6.692;2022-11-15T09:23:29;3.15;;;1.40;;
9108;SDS011;4590;51.462;6.692;2022-11-15T09:25:58;4.50;;;1.47;;
9108;SDS011;4590;51.462;6.692;2022-11-15T09:28:25;2.10;;;1.33;;
9108;SDS011;4590;51.462;6.692;2022-11-15T09:30:50;2.57;;;1.37;;
9108;SDS011;4590;51.462;6.692;2022-11-15T09:33:15;4.90;;;1.40;;
9108;SDS011;4590;51.462;6.692;2022-11-15T09:35:41;2.63;;;1.43;;
9108;SDS011;4590;51.462;6.692;2022-11-15T09:38:06;2.97;;;1.50;;
9108;SDS011;4590;51.462;6.692;2022-11-15T09:40:32;3.08;;;1.30;;
9108;SDS011;4590;51.462;6.692;2022-11-15T09:45:52;3.05;;;1.50;;
9108;SDS011;4590;51.462;6.692;2022-11-15T09:48:25;3.13;;;1.50;;
9108;SDS011;4590;51.462;6.692;2022-11-15T09:51:08;3.37;;;1.50;;
9108;SDS011;4590;51.462;6.692;2022-11-15T09:53:56;3.25;;;1.75;;
9108;SDS011;4590;51.462;6.692;2022-11-15T09:56:37;4.38;;;2.00;;
9108;SDS011;4590;51.462;6.692;2022-11-15T10:02:01;5.13;;;2.70;;
9108;SDS011;4590;51.462;6.692;2022-11-15T10:04:39;5.25;;;2.63;;
9108;SDS011;4590;51.462;6.692;2022-11-15T10:10:02;4.15;;;2.10;;
9108;SDS011;4590;51.462;6.692;2022-11-15T10:12:45;4.43;;;2.08;;
9108;SDS011;4590;51.462;6.692;2022-11-15T10:15:15;3.75;;;1.95;;
9108;SDS011;4590;51.462;6.692;2022-11-15T10:22:56;3.22;;;1.67;;
9108;SDS011;4590;51.462;6.692;2022-11-15T10:25:26;3.15;;;1.40;;
9108;SDS011;4590;51.462;6.692;2022-11-15T10:28:15;2.78;;;1.40;;
9108;SDS011;4590;51.462;6.692;2022-11-15T10:30:46;3.20;;;1.58;;
9108;SDS011;4590;51.462;6.692;2022-11-15T10:41:36;3.50;;;1.42;;
9108;SDS011;4590;51.462;6.692;2022-11-15T10:46:46;3.22;;;1.48;;
9108;SDS011;4590;51.462;6.692;2022-11-15T10:49:28;2.78;;;1.40;;
9108;SDS011;4590;51.462;6.692;2022-11-15T10:51:56;3.42;;;1.17;;
9108;SDS011;4590;51.462;6.692;2022-11-15T10:57:16;3.33;;;1.30;;
9108;SDS011;4590;51.462;6.692;2022-11-15T10:59:48;1.75;;;0.82;;
9108;SDS011;4590;51.462;6.692;2022-11-15T11:02:56;1.45;;;0.80;;
9108;SDS011;4590;51.462;6.692;2022-11-15T11:05:39;2.75;;;0.90;;
9108;SDS011;4590;51.462;6.692;2022-11-15T11:08:22;2.35;;;1.33;;
9108;SDS011;4590;51.462;6.692;2022-11-15T11:10:52;3.22;;;1.00;;
9108;SDS011;4590;51.462;6.692;2022-11-15T11:18:56;4.72;;;1.05;;
9108;SDS011;4590;51.462;6.692;2022-11-15T11:21:46;3.05;;;1.33;;
9108;SDS011;4590;51.462;6.692;2022-11-15T11:27:18;3.03;;;1.17;;
9108;SDS011;4590;51.462;6.692;2022-11-15T11:41:38;3.00;;;1.20;;
9108;SDS011;4590;51.462;6.692;2022-11-15T11:44:16;2.72;;;1.20;;
9108;SDS011;4590;51.462;6.692;2022-11-15T11:49:43;4.43;;;1.20;;
9108;SDS011;4590;51.462;6.692;2022-11-15T11:52:14;1.80;;;0.90;;
9108;SDS011;4590;51.462;6.692;2022-11-15T11:57:29;6.00;;;1.15;;
9108;SDS011;4590;51.462;6.692;2022-11-15T12:00:15;2.10;;;0.80;;
9108;SDS011;4590;51.462;6.692;2022-11-15T12:02:57;2.13;;;0.90;;
9108;SDS011;4590;51.462;6.692;2022-11-15T12:05:34;3.55;;;1.00;;
9108;SDS011;4590;51.462;6.692;2022-11-15T12:11:12;2.22;;;0.80;;
9108;SDS011;4590;51.462;6.692;2022-11-15T12:13:42;4.20;;;1.00;;
9108;SDS011;4590;51.462;6.692;2022-11-15T12:18:50;3.65;;;1.13;;
9108;SDS011;4590;51.462;6.692;2022-11-15T12:21:41;3.05;;;1.00;;
9108;SDS011;4590;51.462;6.692;2022-11-15T12:24:25;2.53;;;1.10;;
9108;SDS011;4590;51.462;6.692;2022-11-15T12:27:08;2.80;;;0.90;;
9108;SDS011;4590;51.462;6.692;2022-11-15T12:29:49;2.92;;;0.90;;
9108;SDS011;4590;51.462;6.692;2022-11-15T12:34:53;1.80;;;0.75;;
9108;SDS011;4590;51.462;6.692;2022-11-15T12:45:29;2.65;;;0.82;;
9108;SDS011;4590;51.462;6.692;2022-11-15T12:53:37;2.35;;;0.75;;
9108;SDS011;4590;51.462;6.692;2022-11-15T12:58:28;0.97;;;0.47;;
9108;SDS011;4590;51.462;6.692;2022-11-15T13:01:07;3.35;;;0.50;;
9108;SDS011;4590;51.462;6.692;2022-11-15T13:03:33;3.58;;;0.75;;
9108;SDS011;4590;51.462;6.692;2022-11-15T13:05:59;1.92;;;0.60;;
9108;SDS011;4590;51.462;6.692;2022-11-15T13:08:38;1.95;;;0.70;;
9108;SDS011;4590;51.462;6.692;2022-11-15T13:11:51;3.47;;;0.70;;
9108;SDS011;4590;51.462;6.692;2022-11-15T13:17:31;2.42;;;0.70;;
9108;SDS011;4590;51.462;6.692;2022-11-15T13:22:39;3.08;;;0.80;;
9108;SDS011;4590;51.462;6.692;2022-11-15T13:28:01;3.05;;;0.60;;
9108;SDS011;4590;51.462;6.692;2022-11-15T13:33:25;1.33;;;0.70;;
9108;SDS011;4590;51.462;6.692;2022-11-15T13:35:58;1.33;;;0.52;;
9108;SDS011;4590;51.462;6.692;2022-11-15T13:38:27;4.05;;;0.80;;
9108;SDS011;4590;51.462;6.692;2022-11-15T13:40:55;2.90;;;0.60;;
9108;SDS011;4590;51.462;6.692;2022-11-15T13:48:38;2.55;;;0.82;;
9108;SDS011;4590;51.462;6.692;2022-11-15T13:51:06;2.45;;;0.65;;
9108;SDS011;4590;51.462;6.692;2022-11-15T13:53:47;2.63;;;0.70;;
9108;SDS011;4590;51.462;6.692;2022-11-15T13:56:18;5.20;;;0.75;;
9108;SDS011;4590;51.462;6.692;2022-11-15T13:58:45;3.65;;;0.80;;
9108;SDS011;4590;51.462;6.692;2022-11-15T14:01:18;3.08;;;0.88;;
9108;SDS011;4590;51.462;6.692;2022-11-15T14:03:47;3.47;;;1.02;;
9108;SDS011;4590;51.462;6.692;2022-11-15T14:06:17;4.20;;;0.90;;
9108;SDS011;4590;51.462;6.692;2022-11-15T14:12:00;2.35;;;0.90;;
9108;SDS011;4590;51.462;6.692;2022-11-15T14:14:28;2.22;;;0.70;;
9108;SDS011;4590;51.462;6.692;2022-11-15T14:16:55;3.35;;;1.27;;
9108;SDS011;4590;51.462;6.692;2022-11-15T14:24:34;3.30;;;1.00;;
9108;SDS011;4590;51.462;6.692;2022-11-15T14:29:49;3.13;;;0.80;;
9108;SDS011;4590;51.462;6.692;2022-11-15T14:32:19;2.08;;;1.10;;
9108;SDS011;4590;51.462;6.692;2022-11-15T14:34:47;1.85;;;0.70;;
9108;SDS011;4590;51.462;6.692;2022-11-15T14:37:24;3.47;;;1.10;;
9108;SDS011;4590;51.462;6.692;2022-11-15T14:39:56;1.70;;;0.70;;
9108;SDS011;4590;51.462;6.692;2022-11-15T14:42:22;2.75;;;0.73;;
9108;SDS011;4590;51.462;6.692;2022-11-15T14:44:48;2.17;;;1.08;;
9108;SDS011;4590;51.462;6.692;2022-11-15T14:47:14;4.40;;;1.40;;
9108;SDS011;4590;51.462;6.692;2022-11-15T14:49:40;5.35;;;1.42;;
9108;SDS011;4590;51.462;6.692;2022-11-15T14:52:16;3.60;;;0.83;;
9108;SDS011;4590;51.462;6.692;2022-11-15T14:54:49;3.83;;;1.15;;
9108;SDS011;4590;51.462;6.692;2022-11-15T14:57:14;3.23;;;1.10;;
9108;SDS011;4590;51.462;6.692;2022-11-15T14:59:39;3.80;;;1.40;;
9108;SDS011;4590;51.462;6.692;2022-11-15T15:02:13;4.83;;;1.63;;
9108;SDS011;4590;51.462;6.692;2022-11-15T15:04:41;6.35;;;1.92;;
9108;SDS011;4590;51.462;6.692;2022-11-15T15:07:06;4.53;;;1.73;;
9108;SDS011;4590;51.462;6.692;2022-11-15T15:09:32;4.45;;;1.85;;
9108;SDS011;4590;51.462;6.692;2022-11-15T15:11:57;4.00;;;1.50;;
9108;SDS011;4590;51.462;6.692;2022-11-15T15:14:23;4.80;;;1.50;;
9108;SDS011;4590;51.462;6.692;2022-11-15T15:16:48;3.73;;;1.43;;
9108;SDS011;4590;51.462;6.692;2022-11-15T15:19:13;3.37;;;1.20;;
9108;SDS011;4590;51.462;6.692;2022-11-15T15:21:38;2.23;;;1.10;;
9108;SDS011;4590;51.462;6.692;2022-11-15T15:24:04;4.63;;;1.20;;
9108;SDS011;4590;51.462;6.692;2022-11-15T15:26:29;2.60;;;1.17;;
9108;SDS011;4590;51.462;6.692;2022-11-15T15:28:57;2.95;;;1.20;;
9108;SDS011;4590;51.462;6.692;2022-11-15T15:31:22;3.87;;;1.57;;
9108;SDS011;4590;51.462;6.692;2022-11-15T15:33:47;2.20;;;1.20;;
9108;SDS011;4590;51.462;6.692;2022-11-15T15:36:13;1.90;;;1.20;;
9108;SDS011;4590;51.462;6.692;2022-11-15T15:38:42;3.17;;;1.17;;
9108;SDS011;4590;51.462;6.692;2022-11-15T15:41:11;3.40;;;1.60;;
9108;SDS011;4590;51.462;6.692;2022-11-15T15:43:36;2.95;;;1.55;;
9108;SDS011;4590;51.462;6.692;2022-11-15T15:46:02;5.07;;;1.50;;
9108;SDS011;4590;51.462;6.692;2022-11-15T15:48:27;2.70;;;1.30;;
9108;SDS011;4590;51.462;6.692;2022-11-15T15:50:52;3.37;;;1.57;;
9108;SDS011;4590;51.462;6.692;2022-11-15T15:53:18;2.97;;;1.27;;
9108;SDS011;4590;51.462;6.692;2022-11-15T15:55:43;4.07;;;1.50;;
9108;SDS011;4590;51.462;6.692;2022-11-15T15:58:08;5.13;;;1.30;;
9108;SDS011;4590;51.462;6.692;2022-11-15T16:00:34;2.23;;;1.20;;
9108;SDS011;4590;51.462;6.692;2022-11-15T16:02:59;4.70;;;1.50;;
9108;SDS011;4590;51.462;6.692;2022-11-15T16:05:24;2.63;;;1.30;;
9108;SDS011;4590;51.462;6.692;2022-11-15T16:07:50;3.60;;;1.20;;
9108;SDS011;4590;51.462;6.692;2022-11-15T16:10:22;2.63;;;1.35;;
9108;SDS011;4590;51.462;6.692;2022-11-15T16:12:54;3.38;;;1.40;;
9108;SDS011;4590;51.462;6.692;2022-11-15T16:15:21;2.67;;;1.30;;
9108;SDS011;4590;51.462;6.692;2022-11-15T16:17:51;2.53;;;1.10;;
9108;SDS011;4590;51.462;6.692;2022-11-15T16:20:23;3.40;;;1.45;;
9108;SDS011;4590;51.462;6.692;2022-11-15T16:22:53;3.60;;;1.38;;
9108;SDS011;4590;51.462;6.692;2022-11-15T16:25:18;2.90;;;1.47;;
9108;SDS011;4590;51.462;6.692;2022-11-15T16:27:44;3.00;;;1.60;;
9108;SDS011;4590;51.462;6.692;2022-11-15T16:30:12;3.35;;;1.52;;
9108;SDS011;4590;51.462;6.692;2022-11-15T16:32:39;2.45;;;1.30;;
9108;SDS011;4590;51.462;6.692;2022-11-15T16:35:04;3.10;;;1.50;;
9108;SDS011;4590;51.462;6.692;2022-11-15T16:37:30;2.25;;;1.30;;
9108;SDS011;4590;51.462;6.692;2022-11-15T16:39:56;2.58;;;1.60;;
9108;SDS011;4590;51.462;6.692;2022-11-15T16:42:21;2.33;;;1.30;;
9108;SDS011;4590;51.462;6.692;2022-11-15T16:44:46;1.90;;;1.17;;
9108;SDS011;4590;51.462;6.692;2022-11-15T16:47:14;3.83;;;1.50;;
9108;SDS011;4590;51.462;6.692;2022-11-15T16:49:42;2.70;;;1.23;;
9108;SDS011;4590;51.462;6.692;2022-11-15T16:52:09;4.20;;;1.25;;
9108;SDS011;4590;51.462;6.692;2022-11-15T16:54:34;2.03;;;1.43;;
9108;SDS011;4590;51.462;6.692;2022-11-15T16:56:59;2.30;;;1.30;;
9108;SDS011;4590;51.462;6.692;2022-11-15T16:59:25;6.00;;;1.50;;
9108;SDS011;4590;51.462;6.692;2022-11-15T17:01:50;3.90;;;1.77;;
9108;SDS011;4590;51.462;6.692;2022-11-15T17:04:16;3.83;;;1.57;;
9108;SDS011;4590;51.462;6.692;2022-11-15T17:06:43;2.83;;;1.58;;
9108;SDS011;4590;51.462;6.692;2022-11-15T17:09:11;3.05;;;1.40;;
9108;SDS011;4590;51.462;6.692;2022-11-15T17:11:41;2.45;;;1.30;;
9108;SDS011;4590;51.462;6.692;2022-11-15T17:14:07;2.40;;;1.40;;
9108;SDS011;4590;51.462;6.692;2022-11-15T17:16:33;2.22;;;1.30;;
9108;SDS011;4590;51.462;6.692;2022-11-15T17:19:00;1.90;;;1.25;;
9108;SDS011;4590;51.462;6.692;2022-11-15T17:21:25;3.08;;;1.30;;
9108;SDS011;4590;51.462;6.692;2022-11-15T17:23:52;1.60;;;1.10;;
9108;SDS011;4590;51.462;6.692;2022-11-15T17:26:18;2.28;;;1.17;;
9108;SDS011;4590;51.462;6.692;2022-11-15T17:28:43;3.27;;;1.40;;
9108;SDS011;4590;51.462;6.692;2022-11-15T17:31:09;2.60;;;1.37;;
9108;SDS011;4590;51.462;6.692;2022-11-15T17:33:36;2.22;;;1.20;;
9108;SDS011;4590;51.462;6.692;2022-11-15T17:36:03;2.10;;;1.33;;
9108;SDS011;4590;51.462;6.692;2022-11-15T17:38:30;2.75;;;1.30;;
9108;SDS011;4590;51.462;6.692;2022-11-15T17:41:03;3.08;;;1.30;;